sensor_id;sensor_type;location;lat;lon;timestamp;P1;durP1;ratioP1;P2;durP2;ratioP2
43529;SDS011;55654;50.966;6.878;2023-06-26T00:00:28;7.78;;;5.05;;
43529;SDS011;55654;50.966;6.878;2023-06-26T00:02:54;7.35;;;5.65;;
43529;SDS011;55654;50.966;6.878;2023-06-26T00:05:20;8.77;;;5.43;;
43529;SDS011;55654;50.966;6.878;2023-06-26T00:07:46;8.60;;;5.55;;
43529;SDS011;55654;50.966;6.878;2023-06-26T00:10:12;9.07;;;5.40;;
43529;SDS011;55654;50.966;6.878;2023-06-26T00:12:38;7.82;;;5.95;;
43529;SDS011;55654;50.966;6.878;2023-06-26T00:15:04;7.32;;;5.15;;
43529;SDS011;55654;50.966;6.878;2023-06-26T00:17:32;8.57;;;5.32;;
43529;SDS011;55654;50.966;6.878;2023-06-26T00:20:02;7.53;;;5.40;;
43529;SDS011;55654;50.966;6.878;2023-06-26T00:22:28;7.82;;;5.30;;
43529;SDS011;55654;50.966;6.878;2023-06-26T00:24:54;11.30;;;5.28;;
43529;SDS011;55654;50.966;6.878;2023-06-26T00:27:20;6.55;;;5.15;;
43529;SDS011;55654;50.966;6.878;2023-06-26T00:29:46;7.30;;;5.80;;
43529;SDS011;55654;50.966;6.878;2023-06-26T00:32:14;6.40;;;5.07;;
43529;SDS011;55654;50.966;6.878;2023-06-26T00:34:43;7.10;;;5.63;;
43529;SDS011;55654;50.966;6.878;2023-06-26T00:37:10;9.75;;;5.18;;
43529;SDS011;55654;50.966;6.878;2023-06-26T00:39:36;6.65;;;5.00;;
43529;SDS011;55654;50.966;6.878;2023-06-26T00:42:05;5.38;;;4.75;;
43529;SDS011;55654;50.966;6.878;2023-06-26T00:44:31;8.43;;;4.72;;
43529;SDS011;55654;50.966;6.878;2023-06-26T00:46:57;5.28;;;4.60;;
43529;SDS011;55654;50.966;6.878;2023-06-26T00:49:24;7.97;;;4.70;;
43529;SDS011;55654;50.966;6.878;2023-06-26T00:51:50;6.43;;;4.60;;
43529;SDS011;55654;50.966;6.878;2023-06-26T00:54:16;8.57;;;5.07;;
43529;SDS011;55654;50.966;6.878;2023-06-26T00:56:45;7.15;;;5.40;;
43529;SDS011;55654;50.966;6.878;2023-06-26T00:59:12;6.07;;;4.88;;
43529;SDS011;55654;50.966;6.878;2023-06-26T01:01:38;7.45;;;4.93;;
43529;SDS011;55654;50.966;6.878;2023-06-26T01:04:04;8.73;;;5.15;;
43529;SDS011;55654;50.966;6.878;2023-06-26T01:06:30;11.85;;;5.07;;
43529;SDS011;55654;50.966;6.878;2023-06-26T01:09:00;7.70;;;5.43;;
43529;SDS011;55654;50.966;6.878;2023-06-26T01:11:26;7.10;;;5.28;;
43529;SDS011;55654;50.966;6.878;2023-06-26T01:13:52;6.50;;;4.85;;
43529;SDS011;55654;50.966;6.878;2023-06-26T01:16:20;6.15;;;5.18;;
43529;SDS011;55654;50.966;6.878;2023-06-26T01:18:47;12.38;;;5.43;;
43529;SDS011;55654;50.966;6.878;2023-06-26T01:21:13;8.52;;;4.80;;
43529;SDS011;55654;50.966;6.878;2023-06-26T01:26:19;6.07;;;5.10;;
43529;SDS011;55654;50.966;6.878;2023-06-26T01:28:46;6.22;;;5.05;;
43529;SDS011;55654;50.966;6.878;2023-06-26T01:31:13;7.78;;;4.55;;
43529;SDS011;55654;50.966;6.878;2023-06-26T01:33:40;6.88;;;5.10;;
43529;SDS011;55654;50.966;6.878;2023-06-26T01:36:06;6.75;;;5.68;;
43529;SDS011;55654;50.966;6.878;2023-06-26T01:38:33;6.57;;;5.00;;
43529;SDS011;55654;50.966;6.878;2023-06-26T01:41:02;7.18;;;5.25;;
43529;SDS011;55654;50.966;6.878;2023-06-26T01:46:16;6.55;;;5.32;;
43529;SDS011;55654;50.966;6.878;2023-06-26T01:48:46;7.60;;;5.30;;
43529;SDS011;55654;50.966;6.878;2023-06-26T01:51:17;7.60;;;5.38;;
43529;SDS011;55654;50.966;6.878;2023-06-26T01:53:47;8.55;;;5.40;;
43529;SDS011;55654;50.966;6.878;2023-06-26T01:56:17;7.15;;;5.03;;
43529;SDS011;55654;50.966;6.878;2023-06-26T01:58:45;7.35;;;5.53;;
43529;SDS011;55654;50.966;6.878;2023-06-26T02:01:12;11.23;;;5.47;;
43529;SDS011;55654;50.966;6.878;2023-06-26T02:03:38;7.55;;;5.68;;
43529;SDS011;55654;50.966;6.878;2023-06-26T02:06:04;10.18;;;5.60;;
43529;SDS011;55654;50.966;6.878;2023-06-26T02:08:30;7.53;;;5.80;;
43529;SDS011;55654;50.966;6.878;2023-06-26T02:10:55;9.07;;;5.55;;
43529;SDS011;55654;50.966;6.878;2023-06-26T02:13:21;6.93;;;5.10;;
43529;SDS011;55654;50.966;6.878;2023-06-26T02:15:50;7.68;;;5.50;;
43529;SDS011;55654;50.966;6.878;2023-06-26T02:18:16;7.95;;;6.03;;
43529;SDS011;55654;50.966;6.878;2023-06-26T02:20:42;7.07;;;5.40;;
43529;SDS011;55654;50.966;6.878;2023-06-26T02:23:10;8.20;;;5.93;;
43529;SDS011;55654;50.966;6.878;2023-06-26T02:25:37;9.02;;;5.50;;
43529;SDS011;55654;50.966;6.878;2023-06-26T02:28:03;7.13;;;5.30;;
43529;SDS011;55654;50.966;6.878;2023-06-26T02:30:29;8.15;;;5.50;;
43529;SDS011;55654;50.966;6.878;2023-06-26T02:32:55;7.68;;;5.88;;
43529;SDS011;55654;50.966;6.878;2023-06-26T02:35:21;6.07;;;5.00;;
43529;SDS011;55654;50.966;6.878;2023-06-26T02:37:47;7.22;;;5.95;;
43529;SDS011;55654;50.966;6.878;2023-06-26T02:40:13;9.45;;;5.70;;
43529;SDS011;55654;50.966;6.878;2023-06-26T02:42:39;7.65;;;5.65;;
43529;SDS011;55654;50.966;6.878;2023-06-26T02:45:08;7.55;;;5.60;;
43529;SDS011;55654;50.966;6.878;2023-06-26T02:47:34;9.38;;;6.07;;
43529;SDS011;55654;50.966;6.878;2023-06-26T02:50:01;7.50;;;6.00;;
43529;SDS011;55654;50.966;6.878;2023-06-26T02:52:28;7.65;;;5.32;;
43529;SDS011;55654;50.966;6.878;2023-06-26T02:54:54;10.00;;;6.50;;
43529;SDS011;55654;50.966;6.878;2023-06-26T02:57:20;6.90;;;5.80;;
43529;SDS011;55654;50.966;6.878;2023-06-26T02:59:46;10.73;;;5.55;;
43529;SDS011;55654;50.966;6.878;2023-06-26T03:02:12;10.35;;;5.45;;
43529;SDS011;55654;50.966;6.878;2023-06-26T03:04:38;7.35;;;5.47;;
43529;SDS011;55654;50.966;6.878;2023-06-26T03:07:04;7.53;;;5.30;;
43529;SDS011;55654;50.966;6.878;2023-06-26T03:09:30;9.45;;;5.72;;
43529;SDS011;55654;50.966;6.878;2023-06-26T03:11:56;8.73;;;5.70;;
43529;SDS011;55654;50.966;6.878;2023-06-26T03:14:22;6.57;;;5.50;;
43529;SDS011;55654;50.966;6.878;2023-06-26T03:16:48;11.63;;;5.50;;
43529;SDS011;55654;50.966;6.878;2023-06-26T03:19:16;8.82;;;5.32;;
43529;SDS011;55654;50.966;6.878;2023-06-26T03:21:44;6.97;;;4.93;;
43529;SDS011;55654;50.966;6.878;2023-06-26T03:24:10;7.78;;;5.10;;
43529;SDS011;55654;50.966;6.878;2023-06-26T03:26:36;7.70;;;5.28;;
43529;SDS011;55654;50.966;6.878;2023-06-26T03:29:02;8.20;;;5.20;;
43529;SDS011;55654;50.966;6.878;2023-06-26T03:31:28;9.13;;;5.05;;
43529;SDS011;55654;50.966;6.878;2023-06-26T03:33:54;13.23;;;5.32;;
43529;SDS011;55654;50.966;6.878;2023-06-26T03:36:20;6.88;;;5.40;;
43529;SDS011;55654;50.966;6.878;2023-06-26T03:38:46;10.32;;;5.38;;
43529;SDS011;55654;50.966;6.878;2023-06-26T03:41:12;11.55;;;5.68;;
43529;SDS011;55654;50.966;6.878;2023-06-26T03:43:38;6.80;;;4.88;;
43529;SDS011;55654;50.966;6.878;2023-06-26T03:46:04;8.45;;;5.00;;
43529;SDS011;55654;50.966;6.878;2023-06-26T03:48:30;10.45;;;5.55;;
43529;SDS011;55654;50.966;6.878;2023-06-26T03:50:56;7.35;;;4.38;;
43529;SDS011;55654;50.966;6.878;2023-06-26T03:53:22;9.02;;;4.72;;
43529;SDS011;55654;50.966;6.878;2023-06-26T03:55:48;8.52;;;4.43;;
43529;SDS011;55654;50.966;6.878;2023-06-26T03:58:14;5.63;;;4.57;;
43529;SDS011;55654;50.966;6.878;2023-06-26T04:00:40;5.65;;;4.72;;
43529;SDS011;55654;50.966;6.878;2023-06-26T04:03:06;7.72;;;5.07;;
43529;SDS011;55654;50.966;6.878;2023-06-26T04:05:37;9.75;;;4.78;;
43529;SDS011;55654;50.966;6.878;2023-06-26T04:08:03;7.60;;;4.55;;
43529;SDS011;55654;50.966;6.878;2023-06-26T04:10:29;6.43;;;4.97;;
43529;SDS011;55654;50.966;6.878;2023-06-26T04:12:55;5.47;;;4.50;;
43529;SDS011;55654;50.966;6.878;2023-06-26T04:15:21;6.70;;;4.10;;
43529;SDS011;55654;50.966;6.878;2023-06-26T04:17:47;7.60;;;4.30;;
43529;SDS011;55654;50.966;6.878;2023-06-26T04:20:13;13.00;;;4.22;;
43529;SDS011;55654;50.966;6.878;2023-06-26T04:22:40;9.82;;;4.32;;
43529;SDS011;55654;50.966;6.878;2023-06-26T04:25:06;6.78;;;4.82;;
43529;SDS011;55654;50.966;6.878;2023-06-26T04:27:32;13.20;;;4.22;;
43529;SDS011;55654;50.966;6.878;2023-06-26T04:29:58;11.95;;;5.07;;
43529;SDS011;55654;50.966;6.878;2023-06-26T04:32:24;8.30;;;4.32;;
43529;SDS011;55654;50.966;6.878;2023-06-26T04:34:52;8.95;;;4.70;;
43529;SDS011;55654;50.966;6.878;2023-06-26T04:37:18;6.80;;;4.80;;
43529;SDS011;55654;50.966;6.878;2023-06-26T04:39:44;9.15;;;5.18;;
43529;SDS011;55654;50.966;6.878;2023-06-26T04:42:10;8.38;;;4.80;;
43529;SDS011;55654;50.966;6.878;2023-06-26T04:44:39;6.72;;;4.32;;
43529;SDS011;55654;50.966;6.878;2023-06-26T04:47:08;10.05;;;4.45;;
43529;SDS011;55654;50.966;6.878;2023-06-26T04:49:34;7.60;;;4.88;;
43529;SDS011;55654;50.966;6.878;2023-06-26T04:52:00;9.60;;;3.85;;
43529;SDS011;55654;50.966;6.878;2023-06-26T04:54:26;8.55;;;4.60;;
43529;SDS011;55654;50.966;6.878;2023-06-26T04:56:55;9.82;;;4.45;;
43529;SDS011;55654;50.966;6.878;2023-06-26T04:59:21;8.60;;;4.40;;
43529;SDS011;55654;50.966;6.878;2023-06-26T05:01:47;8.52;;;4.88;;
43529;SDS011;55654;50.966;6.878;2023-06-26T05:04:14;7.13;;;4.75;;
43529;SDS011;55654;50.966;6.878;2023-06-26T05:06:40;9.27;;;4.20;;
43529;SDS011;55654;50.966;6.878;2023-06-26T05:09:07;7.20;;;3.78;;
43529;SDS011;55654;50.966;6.878;2023-06-26T05:11:33;9.02;;;4.45;;
43529;SDS011;55654;50.966;6.878;2023-06-26T05:13:59;6.82;;;4.38;;
43529;SDS011;55654;50.966;6.878;2023-06-26T05:16:25;9.73;;;3.97;;
43529;SDS011;55654;50.966;6.878;2023-06-26T05:18:51;7.57;;;4.05;;
43529;SDS011;55654;50.966;6.878;2023-06-26T05:21:17;8.13;;;3.55;;
43529;SDS011;55654;50.966;6.878;2023-06-26T05:23:43;6.93;;;4.28;;
43529;SDS011;55654;50.966;6.878;2023-06-26T05:26:10;9.55;;;4.00;;
43529;SDS011;55654;50.966;6.878;2023-06-26T05:28:38;10.10;;;4.43;;
43529;SDS011;55654;50.966;6.878;2023-06-26T05:31:04;7.60;;;3.60;;
43529;SDS011;55654;50.966;6.878;2023-06-26T05:33:30;5.50;;;4.10;;
43529;SDS011;55654;50.966;6.878;2023-06-26T05:35:56;7.50;;;4.68;;
43529;SDS011;55654;50.966;6.878;2023-06-26T05:38:24;8.70;;;4.68;;
43529;SDS011;55654;50.966;6.878;2023-06-26T05:40:50;7.38;;;4.35;;
43529;SDS011;55654;50.966;6.878;2023-06-26T05:43:16;6.63;;;4.15;;
43529;SDS011;55654;50.966;6.878;2023-06-26T05:45:45;10.02;;;4.88;;
43529;SDS011;55654;50.966;6.878;2023-06-26T05:48:12;6.20;;;4.57;;
43529;SDS011;55654;50.966;6.878;2023-06-26T05:50:38;8.30;;;4.45;;
43529;SDS011;55654;50.966;6.878;2023-06-26T05:53:06;5.63;;;3.85;;
43529;SDS011;55654;50.966;6.878;2023-06-26T05:55:33;11.48;;;4.40;;
43529;SDS011;55654;50.966;6.878;2023-06-26T05:57:59;14.07;;;4.30;;
43529;SDS011;55654;50.966;6.878;2023-06-26T06:00:26;7.40;;;4.30;;
43529;SDS011;55654;50.966;6.878;2023-06-26T06:02:55;12.90;;;4.85;;
43529;SDS011;55654;50.966;6.878;2023-06-26T06:05:21;5.93;;;3.67;;
43529;SDS011;55654;50.966;6.878;2023-06-26T06:07:47;8.95;;;4.07;;
43529;SDS011;55654;50.966;6.878;2023-06-26T06:10:13;8.60;;;3.58;;
43529;SDS011;55654;50.966;6.878;2023-06-26T06:12:39;7.47;;;3.95;;
43529;SDS011;55654;50.966;6.878;2023-06-26T06:15:05;14.25;;;3.90;;
43529;SDS011;55654;50.966;6.878;2023-06-26T06:17:31;7.75;;;4.65;;
43529;SDS011;55654;50.966;6.878;2023-06-26T06:19:57;6.05;;;3.92;;
43529;SDS011;55654;50.966;6.878;2023-06-26T06:22:23;7.72;;;4.00;;
43529;SDS011;55654;50.966;6.878;2023-06-26T06:24:50;7.95;;;4.30;;
43529;SDS011;55654;50.966;6.878;2023-06-26T06:27:16;11.05;;;4.35;;
43529;SDS011;55654;50.966;6.878;2023-06-26T06:29:42;12.55;;;4.28;;
43529;SDS011;55654;50.966;6.878;2023-06-26T06:32:08;12.18;;;3.85;;
43529;SDS011;55654;50.966;6.878;2023-06-26T06:34:35;7.78;;;3.88;;
43529;SDS011;55654;50.966;6.878;2023-06-26T06:37:01;9.10;;;3.88;;
43529;SDS011;55654;50.966;6.878;2023-06-26T06:39:27;13.13;;;4.82;;
43529;SDS011;55654;50.966;6.878;2023-06-26T06:41:53;9.35;;;4.65;;
43529;SDS011;55654;50.966;6.878;2023-06-26T06:44:19;10.13;;;3.95;;
43529;SDS011;55654;50.966;6.878;2023-06-26T06:46:46;8.18;;;4.10;;
43529;SDS011;55654;50.966;6.878;2023-06-26T06:49:12;12.55;;;3.95;;
43529;SDS011;55654;50.966;6.878;2023-06-26T06:51:38;9.88;;;4.25;;
43529;SDS011;55654;50.966;6.878;2023-06-26T06:54:04;9.85;;;4.60;;
43529;SDS011;55654;50.966;6.878;2023-06-26T06:56:30;11.82;;;4.00;;
43529;SDS011;55654;50.966;6.878;2023-06-26T06:58:56;8.25;;;4.60;;
43529;SDS011;55654;50.966;6.878;2023-06-26T07:01:22;8.00;;;4.28;;
43529;SDS011;55654;50.966;6.878;2023-06-26T07:03:48;9.27;;;3.88;;
43529;SDS011;55654;50.966;6.878;2023-06-26T07:06:14;8.63;;;4.30;;
43529;SDS011;55654;50.966;6.878;2023-06-26T07:08:40;10.75;;;4.50;;
43529;SDS011;55654;50.966;6.878;2023-06-26T07:11:06;8.07;;;4.18;;
43529;SDS011;55654;50.966;6.878;2023-06-26T07:13:32;11.40;;;5.00;;
43529;SDS011;55654;50.966;6.878;2023-06-26T07:15:58;9.13;;;4.10;;
43529;SDS011;55654;50.966;6.878;2023-06-26T07:18:27;8.15;;;4.00;;
43529;SDS011;55654;50.966;6.878;2023-06-26T07:20:53;11.10;;;4.95;;
43529;SDS011;55654;50.966;6.878;2023-06-26T07:23:19;11.45;;;4.68;;
43529;SDS011;55654;50.966;6.878;2023-06-26T07:25:45;9.18;;;4.32;;
43529;SDS011;55654;50.966;6.878;2023-06-26T07:28:11;8.93;;;4.85;;
43529;SDS011;55654;50.966;6.878;2023-06-26T07:30:38;10.90;;;5.00;;
43529;SDS011;55654;50.966;6.878;2023-06-26T07:33:04;9.00;;;4.63;;
43529;SDS011;55654;50.966;6.878;2023-06-26T07:35:30;12.60;;;4.68;;
43529;SDS011;55654;50.966;6.878;2023-06-26T07:37:56;10.35;;;5.10;;
43529;SDS011;55654;50.966;6.878;2023-06-26T07:40:22;14.73;;;4.28;;
43529;SDS011;55654;50.966;6.878;2023-06-26T07:42:48;10.75;;;4.13;;
43529;SDS011;55654;50.966;6.878;2023-06-26T07:45:15;9.63;;;4.20;;
43529;SDS011;55654;50.966;6.878;2023-06-26T07:47:41;9.93;;;4.55;;
43529;SDS011;55654;50.966;6.878;2023-06-26T07:50:07;7.47;;;4.47;;
43529;SDS011;55654;50.966;6.878;2023-06-26T07:52:33;14.25;;;4.63;;
43529;SDS011;55654;50.966;6.878;2023-06-26T07:54:59;11.63;;;4.63;;
43529;SDS011;55654;50.966;6.878;2023-06-26T07:57:25;9.77;;;3.97;;
43529;SDS011;55654;50.966;6.878;2023-06-26T07:59:51;8.88;;;4.13;;
43529;SDS011;55654;50.966;6.878;2023-06-26T08:02:17;8.07;;;3.85;;
43529;SDS011;55654;50.966;6.878;2023-06-26T08:04:43;8.38;;;3.40;;
43529;SDS011;55654;50.966;6.878;2023-06-26T08:07:09;11.57;;;4.47;;
43529;SDS011;55654;50.966;6.878;2023-06-26T08:09:35;11.80;;;3.95;;
43529;SDS011;55654;50.966;6.878;2023-06-26T08:12:01;10.27;;;3.88;;
43529;SDS011;55654;50.966;6.878;2023-06-26T08:14:27;6.80;;;3.55;;
43529;SDS011;55654;50.966;6.878;2023-06-26T08:16:54;13.55;;;5.10;;
43529;SDS011;55654;50.966;6.878;2023-06-26T08:19:20;10.00;;;4.18;;
43529;SDS011;55654;50.966;6.878;2023-06-26T08:21:46;11.35;;;4.70;;
43529;SDS011;55654;50.966;6.878;2023-06-26T08:24:13;13.15;;;4.45;;
43529;SDS011;55654;50.966;6.878;2023-06-26T08:26:41;8.48;;;4.50;;
43529;SDS011;55654;50.966;6.878;2023-06-26T08:29:07;11.00;;;4.63;;
43529;SDS011;55654;50.966;6.878;2023-06-26T08:31:33;13.88;;;4.00;;
43529;SDS011;55654;50.966;6.878;2023-06-26T08:34:00;18.08;;;5.75;;
43529;SDS011;55654;50.966;6.878;2023-06-26T08:36:26;11.90;;;4.47;;
43529;SDS011;55654;50.966;6.878;2023-06-26T08:38:52;12.57;;;4.18;;
43529;SDS011;55654;50.966;6.878;2023-06-26T08:41:18;8.63;;;3.65;;
43529;SDS011;55654;50.966;6.878;2023-06-26T08:43:44;14.10;;;4.40;;
43529;SDS011;55654;50.966;6.878;2023-06-26T08:46:10;8.43;;;4.25;;
43529;SDS011;55654;50.966;6.878;2023-06-26T08:48:36;12.85;;;4.53;;
43529;SDS011;55654;50.966;6.878;2023-06-26T08:51:09;9.02;;;3.70;;
43529;SDS011;55654;50.966;6.878;2023-06-26T08:56:03;9.82;;;3.92;;
43529;SDS011;55654;50.966;6.878;2023-06-26T08:58:29;11.20;;;4.10;;
43529;SDS011;55654;50.966;6.878;2023-06-26T09:00:55;10.80;;;4.18;;
43529;SDS011;55654;50.966;6.878;2023-06-26T09:03:21;10.65;;;3.40;;
43529;SDS011;55654;50.966;6.878;2023-06-26T09:05:48;12.85;;;3.72;;
43529;SDS011;55654;50.966;6.878;2023-06-26T09:08:14;17.13;;;4.57;;
43529;SDS011;55654;50.966;6.878;2023-06-26T09:10:40;9.15;;;3.78;;
43529;SDS011;55654;50.966;6.878;2023-06-26T09:13:06;17.27;;;4.50;;
43529;SDS011;55654;50.966;6.878;2023-06-26T09:15:38;9.55;;;3.55;;
43529;SDS011;55654;50.966;6.878;2023-06-26T09:18:05;10.40;;;4.15;;
43529;SDS011;55654;50.966;6.878;2023-06-26T09:20:31;11.35;;;4.63;;
43529;SDS011;55654;50.966;6.878;2023-06-26T09:22:58;10.85;;;4.30;;
43529;SDS011;55654;50.966;6.878;2023-06-26T09:25:24;14.38;;;4.05;;
43529;SDS011;55654;50.966;6.878;2023-06-26T09:27:53;12.43;;;4.45;;
43529;SDS011;55654;50.966;6.878;2023-06-26T09:30:19;8.73;;;3.30;;
43529;SDS011;55654;50.966;6.878;2023-06-26T09:32:45;14.45;;;3.63;;
43529;SDS011;55654;50.966;6.878;2023-06-26T09:35:11;13.52;;;4.43;;
43529;SDS011;55654;50.966;6.878;2023-06-26T09:37:37;10.25;;;4.18;;
43529;SDS011;55654;50.966;6.878;2023-06-26T09:40:03;10.77;;;3.20;;
43529;SDS011;55654;50.966;6.878;2023-06-26T09:42:30;11.40;;;3.40;;
43529;SDS011;55654;50.966;6.878;2023-06-26T09:44:56;8.13;;;3.22;;
43529;SDS011;55654;50.966;6.878;2023-06-26T09:47:22;12.35;;;3.40;;
43529;SDS011;55654;50.966;6.878;2023-06-26T09:49:51;7.47;;;3.25;;
43529;SDS011;55654;50.966;6.878;2023-06-26T09:52:17;7.80;;;3.15;;
43529;SDS011;55654;50.966;6.878;2023-06-26T09:54:45;17.52;;;3.20;;
43529;SDS011;55654;50.966;6.878;2023-06-26T09:57:12;8.50;;;3.10;;
43529;SDS011;55654;50.966;6.878;2023-06-26T09:59:44;15.85;;;4.35;;
43529;SDS011;55654;50.966;6.878;2023-06-26T10:02:13;13.25;;;3.53;;
43529;SDS011;55654;50.966;6.878;2023-06-26T10:04:52;8.75;;;3.05;;
43529;SDS011;55654;50.966;6.878;2023-06-26T10:07:18;22.35;;;4.13;;
43529;SDS011;55654;50.966;6.878;2023-06-26T10:09:45;9.15;;;3.28;;
43529;SDS011;55654;50.966;6.878;2023-06-26T10:12:30;5.95;;;2.33;;
43529;SDS011;55654;50.966;6.878;2023-06-26T10:14:56;11.43;;;3.20;;
43529;SDS011;55654;50.966;6.878;2023-06-26T10:17:24;10.45;;;3.72;;
43529;SDS011;55654;50.966;6.878;2023-06-26T10:19:51;10.02;;;2.95;;
43529;SDS011;55654;50.966;6.878;2023-06-26T10:22:19;12.38;;;2.55;;
43529;SDS011;55654;50.966;6.878;2023-06-26T10:24:47;6.45;;;2.38;;
43529;SDS011;55654;50.966;6.878;2023-06-26T10:27:20;10.75;;;2.60;;
43529;SDS011;55654;50.966;6.878;2023-06-26T10:29:51;11.57;;;3.13;;
43529;SDS011;55654;50.966;6.878;2023-06-26T10:32:19;7.50;;;3.25;;
43529;SDS011;55654;50.966;6.878;2023-06-26T10:34:48;10.52;;;2.70;;
43529;SDS011;55654;50.966;6.878;2023-06-26T10:37:14;11.15;;;2.63;;
43529;SDS011;55654;50.966;6.878;2023-06-26T10:39:59;5.25;;;2.15;;
43529;SDS011;55654;50.966;6.878;2023-06-26T10:42:35;11.40;;;2.50;;
43529;SDS011;55654;50.966;6.878;2023-06-26T10:45:14;12.43;;;2.55;;
43529;SDS011;55654;50.966;6.878;2023-06-26T10:47:41;9.23;;;2.30;;
43529;SDS011;55654;50.966;6.878;2023-06-26T10:55:49;4.75;;;2.08;;
43529;SDS011;55654;50.966;6.878;2023-06-26T11:01:13;13.32;;;3.15;;
43529;SDS011;55654;50.966;6.878;2023-06-26T11:03:40;6.68;;;2.17;;
43529;SDS011;55654;50.966;6.878;2023-06-26T11:06:10;7.78;;;2.60;;
43529;SDS011;55654;50.966;6.878;2023-06-26T11:11:18;10.45;;;1.90;;
43529;SDS011;55654;50.966;6.878;2023-06-26T11:13:45;7.88;;;2.50;;
43529;SDS011;55654;50.966;6.878;2023-06-26T11:16:12;8.75;;;2.25;;
43529;SDS011;55654;50.966;6.878;2023-06-26T11:18:39;6.65;;;1.75;;
43529;SDS011;55654;50.966;6.878;2023-06-26T11:21:08;14.95;;;3.00;;
43529;SDS011;55654;50.966;6.878;2023-06-26T11:23:36;5.72;;;2.28;;
43529;SDS011;55654;50.966;6.878;2023-06-26T11:26:12;8.98;;;1.85;;
43529;SDS011;55654;50.966;6.878;2023-06-26T11:28:38;10.73;;;1.83;;
43529;SDS011;55654;50.966;6.878;2023-06-26T11:31:04;10.25;;;2.05;;
43529;SDS011;55654;50.966;6.878;2023-06-26T11:33:30;7.85;;;2.30;;
43529;SDS011;55654;50.966;6.878;2023-06-26T11:36:07;7.53;;;2.13;;
43529;SDS011;55654;50.966;6.878;2023-06-26T11:38:37;8.27;;;2.35;;
43529;SDS011;55654;50.966;6.878;2023-06-26T11:41:03;5.65;;;2.10;;
43529;SDS011;55654;50.966;6.878;2023-06-26T11:43:33;6.32;;;2.10;;
43529;SDS011;55654;50.966;6.878;2023-06-26T11:45:59;9.82;;;1.95;;
43529;SDS011;55654;50.966;6.878;2023-06-26T11:48:25;5.78;;;1.75;;
43529;SDS011;55654;50.966;6.878;2023-06-26T11:50:51;5.97;;;1.52;;
43529;SDS011;55654;50.966;6.878;2023-06-26T11:53:17;6.32;;;1.42;;
43529;SDS011;55654;50.966;6.878;2023-06-26T11:55:43;4.45;;;1.58;;
43529;SDS011;55654;50.966;6.878;2023-06-26T11:58:09;15.65;;;1.90;;
43529;SDS011;55654;50.966;6.878;2023-06-26T12:00:40;5.38;;;1.50;;
43529;SDS011;55654;50.966;6.878;2023-06-26T12:03:06;5.82;;;1.75;;
43529;SDS011;55654;50.966;6.878;2023-06-26T12:05:32;4.68;;;1.42;;
43529;SDS011;55654;50.966;6.878;2023-06-26T12:07:58;7.78;;;1.77;;
43529;SDS011;55654;50.966;6.878;2023-06-26T12:10:24;8.68;;;2.22;;
43529;SDS011;55654;50.966;6.878;2023-06-26T12:12:50;7.68;;;1.88;;
43529;SDS011;55654;50.966;6.878;2023-06-26T12:15:16;4.72;;;1.80;;
43529;SDS011;55654;50.966;6.878;2023-06-26T12:17:42;7.22;;;1.77;;
43529;SDS011;55654;50.966;6.878;2023-06-26T12:20:21;8.05;;;1.77;;
43529;SDS011;55654;50.966;6.878;2023-06-26T12:22:48;8.45;;;1.70;;
43529;SDS011;55654;50.966;6.878;2023-06-26T12:25:14;4.30;;;1.42;;
43529;SDS011;55654;50.966;6.878;2023-06-26T12:27:40;18.42;;;2.10;;
43529;SDS011;55654;50.966;6.878;2023-06-26T12:30:07;4.63;;;1.65;;
43529;SDS011;55654;50.966;6.878;2023-06-26T12:32:34;13.77;;;2.67;;
43529;SDS011;55654;50.966;6.878;2023-06-26T12:35:00;8.30;;;1.80;;
43529;SDS011;55654;50.966;6.878;2023-06-26T12:37:31;21.48;;;2.05;;
43529;SDS011;55654;50.966;6.878;2023-06-26T12:40:02;12.25;;;2.45;;
43529;SDS011;55654;50.966;6.878;2023-06-26T12:42:32;16.27;;;2.63;;
43529;SDS011;55654;50.966;6.878;2023-06-26T12:44:59;13.68;;;1.33;;
43529;SDS011;55654;50.966;6.878;2023-06-26T12:47:25;10.32;;;2.05;;
43529;SDS011;55654;50.966;6.878;2023-06-26T12:49:52;7.70;;;1.20;;
43529;SDS011;55654;50.966;6.878;2023-06-26T12:52:18;19.92;;;2.15;;
43529;SDS011;55654;50.966;6.878;2023-06-26T12:54:51;7.50;;;1.38;;
43529;SDS011;55654;50.966;6.878;2023-06-26T12:57:19;6.18;;;1.38;;
43529;SDS011;55654;50.966;6.878;2023-06-26T12:59:45;6.25;;;1.20;;
43529;SDS011;55654;50.966;6.878;2023-06-26T13:02:11;15.07;;;2.05;;
43529;SDS011;55654;50.966;6.878;2023-06-26T13:04:38;18.58;;;1.85;;
43529;SDS011;55654;50.966;6.878;2023-06-26T13:07:09;9.03;;;1.60;;
43529;SDS011;55654;50.966;6.878;2023-06-26T13:09:35;10.90;;;1.98;;
43529;SDS011;55654;50.966;6.878;2023-06-26T13:12:02;12.65;;;1.33;;
43529;SDS011;55654;50.966;6.878;2023-06-26T13:14:29;4.90;;;1.13;;
43529;SDS011;55654;50.966;6.878;2023-06-26T13:16:55;12.27;;;1.33;;
43529;SDS011;55654;50.966;6.878;2023-06-26T13:19:20;12.88;;;1.35;;
43529;SDS011;55654;50.966;6.878;2023-06-26T13:21:46;14.38;;;1.77;;
43529;SDS011;55654;50.966;6.878;2023-06-26T13:24:12;6.95;;;1.23;;
43529;SDS011;55654;50.966;6.878;2023-06-26T13:26:38;9.88;;;1.40;;
43529;SDS011;55654;50.966;6.878;2023-06-26T13:29:05;8.27;;;1.35;;
43529;SDS011;55654;50.966;6.878;2023-06-26T13:31:31;12.05;;;1.48;;
43529;SDS011;55654;50.966;6.878;2023-06-26T13:34:01;16.88;;;1.88;;
43529;SDS011;55654;50.966;6.878;2023-06-26T13:36:28;13.77;;;1.98;;
43529;SDS011;55654;50.966;6.878;2023-06-26T13:38:54;5.60;;;1.08;;
43529;SDS011;55654;50.966;6.878;2023-06-26T13:41:24;2.45;;;0.93;;
43529;SDS011;55654;50.966;6.878;2023-06-26T13:43:50;9.25;;;1.23;;
43529;SDS011;55654;50.966;6.878;2023-06-26T13:46:16;6.05;;;1.05;;
43529;SDS011;55654;50.966;6.878;2023-06-26T13:48:43;8.05;;;1.17;;
43529;SDS011;55654;50.966;6.878;2023-06-26T13:51:09;3.38;;;0.82;;
43529;SDS011;55654;50.966;6.878;2023-06-26T13:53:35;3.47;;;1.08;;
43529;SDS011;55654;50.966;6.878;2023-06-26T13:56:05;6.45;;;0.90;;
43529;SDS011;55654;50.966;6.878;2023-06-26T13:58:34;6.40;;;1.42;;
43529;SDS011;55654;50.966;6.878;2023-06-26T14:01:01;8.63;;;1.20;;
43529;SDS011;55654;50.966;6.878;2023-06-26T14:03:27;7.25;;;1.10;;
43529;SDS011;55654;50.966;6.878;2023-06-26T14:05:55;5.95;;;1.10;;
43529;SDS011;55654;50.966;6.878;2023-06-26T14:08:21;2.60;;;0.50;;
43529;SDS011;55654;50.966;6.878;2023-06-26T14:10:47;3.45;;;0.75;;
43529;SDS011;55654;50.966;6.878;2023-06-26T14:13:16;6.57;;;1.08;;
43529;SDS011;55654;50.966;6.878;2023-06-26T14:15:42;10.90;;;2.28;;
43529;SDS011;55654;50.966;6.878;2023-06-26T14:18:08;7.50;;;1.50;;
43529;SDS011;55654;50.966;6.878;2023-06-26T14:20:34;4.63;;;1.40;;
43529;SDS011;55654;50.966;6.878;2023-06-26T14:23:05;10.00;;;1.30;;
43529;SDS011;55654;50.966;6.878;2023-06-26T14:25:31;8.40;;;1.30;;
43529;SDS011;55654;50.966;6.878;2023-06-26T14:27:57;4.70;;;1.15;;
43529;SDS011;55654;50.966;6.878;2023-06-26T14:30:23;6.75;;;1.65;;
43529;SDS011;55654;50.966;6.878;2023-06-26T14:32:49;16.85;;;2.75;;
43529;SDS011;55654;50.966;6.878;2023-06-26T14:35:15;10.80;;;2.03;;
43529;SDS011;55654;50.966;6.878;2023-06-26T14:37:47;11.88;;;2.28;;
43529;SDS011;55654;50.966;6.878;2023-06-26T14:40:19;4.45;;;0.90;;
43529;SDS011;55654;50.966;6.878;2023-06-26T14:42:45;7.78;;;1.98;;
43529;SDS011;55654;50.966;6.878;2023-06-26T14:45:11;4.47;;;1.30;;
43529;SDS011;55654;50.966;6.878;2023-06-26T14:47:39;7.15;;;1.45;;
43529;SDS011;55654;50.966;6.878;2023-06-26T14:50:05;5.57;;;1.65;;
43529;SDS011;55654;50.966;6.878;2023-06-26T14:52:32;10.55;;;1.48;;
43529;SDS011;55654;50.966;6.878;2023-06-26T14:54:58;9.93;;;1.50;;
43529;SDS011;55654;50.966;6.878;2023-06-26T14:57:24;5.15;;;1.00;;
43529;SDS011;55654;50.966;6.878;2023-06-26T14:59:53;6.50;;;0.90;;